createdAt,value
2022-12-08T00:01:35.505Z,8.73
2022-12-08T00:04:05.074Z,6.93
2022-12-08T00:06:53.837Z,10.00
2022-12-08T00:09:24.058Z,9.60
2022-12-08T00:11:54.678Z,14.32
2022-12-08T00:14:25.919Z,13.13
2022-12-08T00:16:54.340Z,6.85
2022-12-08T00:19:22.767Z,7.82
2022-12-08T00:21:52.665Z,6.40
2022-12-08T00:24:21.912Z,7.47
2022-12-08T00:26:50.486Z,8.50
2022-12-08T00:29:18.808Z,11.10
2022-12-08T00:31:46.747Z,9.18
2022-12-08T00:34:15.565Z,9.27
2022-12-08T00:36:43.930Z,8.25
2022-12-08T00:39:15.317Z,13.85
2022-12-08T00:42:00.669Z,6.45
2022-12-08T00:44:28.938Z,7.40
2022-12-08T00:46:56.964Z,9.95
2022-12-08T00:49:25.399Z,8.30
2022-12-08T00:51:53.461Z,6.72
2022-12-08T00:54:23.962Z,7.05
2022-12-08T00:56:52.412Z,10.65
2022-12-08T00:59:20.262Z,9.00
2022-12-08T01:01:49.103Z,8.40
2022-12-08T01:04:18.733Z,9.05
2022-12-08T01:06:47.441Z,8.73
2022-12-08T01:09:16.907Z,9.20
2022-12-08T01:11:46.783Z,7.60
2022-12-08T01:14:15.431Z,11.68
2022-12-08T01:16:44.224Z,8.13
2022-12-08T01:19:13.324Z,10.07
2022-12-08T01:21:41.975Z,8.95
2022-12-08T01:24:12.811Z,10.20
2022-12-08T01:26:40.920Z,7.07
2022-12-08T01:29:10.858Z,8.20
2022-12-08T01:31:39.158Z,5.93
2022-12-08T01:34:08.039Z,10.40
2022-12-08T01:36:38.260Z,10.80
2022-12-08T01:39:08.887Z,8.15
2022-12-08T01:41:39.321Z,11.43
2022-12-08T01:44:40.576Z,9.85
2022-12-08T01:47:10.474Z,9.30
2022-12-08T01:49:38.739Z,12.05
2022-12-08T01:52:12.285Z,8.23
2022-12-08T01:54:44.276Z,9.15
2022-12-08T01:57:15.661Z,10.75
2022-12-08T01:59:47.955Z,11.73
2022-12-08T02:02:17.434Z,9.68
2022-12-08T02:04:45.441Z,10.48
2022-12-08T02:07:15.658Z,10.73
2022-12-08T02:09:43.947Z,10.63
2022-12-08T02:12:12.856Z,13.85
2022-12-08T02:14:41.028Z,9.90
2022-12-08T02:17:26.341Z,12.75
2022-12-08T02:20:21.626Z,9.00
2022-12-08T02:22:55.744Z,11.95
2022-12-08T02:25:33.377Z,12.18
2022-12-08T02:28:09.481Z,11.50
2022-12-08T02:30:48.571Z,10.38
2022-12-08T02:34:01.746Z,11.32
2022-12-08T02:36:40.954Z,9.50
2022-12-08T02:39:19.397Z,8.35
2022-12-08T02:41:54.844Z,9.25
2022-12-08T02:44:29.021Z,13.20
2022-12-08T02:47:00.574Z,14.93
2022-12-08T02:49:34.460Z,11.82
2022-12-08T02:52:07.483Z,11.75
2022-12-08T02:54:37.201Z,9.73
2022-12-08T02:57:22.699Z,16.88
2022-12-08T03:00:06.061Z,10.98
2022-12-08T03:02:45.502Z,12.25
2022-12-08T03:05:34.689Z,10.35
2022-12-08T03:08:09.914Z,10.40
2022-12-08T03:10:44.001Z,12.52
2022-12-08T03:13:16.648Z,10.30
2022-12-08T03:15:47.922Z,8.50
2022-12-08T03:18:17.760Z,12.43
2022-12-08T03:20:48.997Z,10.02
2022-12-08T03:23:19.768Z,9.43
2022-12-08T03:25:54.604Z,12.10
2022-12-08T03:28:22.582Z,14.15
2022-12-08T03:30:56.701Z,7.70
2022-12-08T03:33:28.854Z,11.02
2022-12-08T03:36:00.620Z,11.05
2022-12-08T03:38:38.872Z,12.68
2022-12-08T03:41:22.142Z,10.27
2022-12-08T03:43:51.735Z,9.60
2022-12-08T03:48:48.793Z,11.27
2022-12-08T03:51:18.582Z,12.18
2022-12-08T03:53:47.365Z,8.77
2022-12-08T03:56:20.560Z,9.57
2022-12-08T03:58:48.523Z,10.38
2022-12-08T04:01:16.394Z,8.45
2022-12-08T04:03:44.367Z,8.88
2022-12-08T04:06:12.396Z,10.50
2022-12-08T04:08:42.030Z,10.50
2022-12-08T04:11:10.687Z,12.00
2022-12-08T04:13:40.324Z,10.82
2022-12-08T04:16:09.605Z,11.02
2022-12-08T04:18:37.589Z,10.13
2022-12-08T04:21:05.969Z,14.30
2022-12-08T04:23:33.852Z,14.65
2022-12-08T04:26:03.136Z,10.15
2022-12-08T04:28:31.103Z,13.25
2022-12-08T04:30:59.176Z,11.15
2022-12-08T04:33:27.382Z,11.15
2022-12-08T04:35:55.301Z,9.95
2022-12-08T04:38:23.349Z,9.88
2022-12-08T04:40:51.235Z,13.45
2022-12-08T04:43:20.495Z,11.55
2022-12-08T04:45:48.508Z,13.70
2022-12-08T04:48:16.404Z,11.02
2022-12-08T04:50:46.185Z,14.77
2022-12-08T04:53:14.780Z,9.60
2022-12-08T04:55:44.775Z,14.30
2022-12-08T04:58:14.713Z,12.07
2022-12-08T05:00:44.854Z,21.85
2022-12-08T05:03:13.364Z,9.73
2022-12-08T05:05:42.181Z,11.07
2022-12-08T05:08:11.339Z,12.15
2022-12-08T05:10:39.572Z,14.07
2022-12-08T05:13:07.547Z,10.15
2022-12-08T05:15:35.587Z,13.63
2022-12-08T05:18:06.152Z,11.00
2022-12-08T05:20:34.068Z,10.77
2022-12-08T05:23:01.978Z,9.80
2022-12-08T05:25:29.924Z,10.38
2022-12-08T05:28:17.496Z,9.25
2022-12-08T05:30:45.809Z,11.25
2022-12-08T05:33:15.299Z,10.25
2022-12-08T05:35:43.278Z,10.27
2022-12-08T05:38:11.409Z,11.73
2022-12-08T05:40:39.974Z,8.82
2022-12-08T05:43:08.192Z,9.30
2022-12-08T05:45:36.147Z,11.40
2022-12-08T05:48:04.394Z,11.98
2022-12-08T05:50:33.728Z,9.57
2022-12-08T05:53:05.479Z,10.32
2022-12-08T05:55:33.499Z,11.18
2022-12-08T05:58:07.487Z,9.95
2022-12-08T06:00:36.060Z,14.45
2022-12-08T06:03:04.185Z,14.05
2022-12-08T06:05:35.287Z,9.82
2022-12-08T06:08:03.658Z,17.95
2022-12-08T06:10:31.593Z,11.32
2022-12-08T06:12:59.574Z,10.45
2022-12-08T06:15:27.619Z,11.23
2022-12-08T06:17:55.504Z,13.05
2022-12-08T06:20:35.488Z,11.23
2022-12-08T06:23:03.493Z,11.32
2022-12-08T06:25:31.666Z,14.57
2022-12-08T06:27:59.521Z,11.43
2022-12-08T06:30:28.544Z,12.07
2022-12-08T06:32:56.626Z,12.57
2022-12-08T06:35:24.505Z,14.07
2022-12-08T06:37:53.717Z,12.82
2022-12-08T06:40:21.622Z,12.60
2022-12-08T06:42:49.540Z,12.50
2022-12-08T06:45:19.244Z,11.15
2022-12-08T06:47:47.140Z,13.18
2022-12-08T06:50:15.494Z,8.77
2022-12-08T06:52:54.320Z,8.48
2022-12-08T06:58:18.433Z,9.85
2022-12-08T07:00:46.625Z,11.00
2022-12-08T07:03:14.813Z,8.95
2022-12-08T07:05:42.759Z,11.80
2022-12-08T07:08:10.991Z,11.50
2022-12-08T07:10:40.345Z,11.57
2022-12-08T07:13:08.225Z,12.23
2022-12-08T07:15:36.590Z,12.68
2022-12-08T07:18:04.624Z,12.60
2022-12-08T07:20:32.703Z,12.20
2022-12-08T07:23:00.845Z,13.52
2022-12-08T07:25:29.095Z,14.27
2022-12-08T07:27:58.537Z,10.32
2022-12-08T07:30:26.586Z,14.02
2022-12-08T07:32:54.646Z,11.50
2022-12-08T07:35:23.163Z,27.45
2022-12-08T07:37:51.150Z,14.43
2022-12-08T07:40:19.265Z,11.93
2022-12-08T07:42:47.206Z,13.15
2022-12-08T07:45:16.734Z,14.77
2022-12-08T07:47:44.633Z,13.07
2022-12-08T07:50:12.586Z,15.40
2022-12-08T07:52:40.655Z,13.43
2022-12-08T07:55:09.500Z,15.05
2022-12-08T07:57:37.472Z,16.08
2022-12-08T08:00:07.107Z,14.10
2022-12-08T08:02:41.088Z,17.77
2022-12-08T08:05:10.340Z,18.75
2022-12-08T08:07:38.645Z,16.42
2022-12-08T08:10:08.084Z,17.35
2022-12-08T08:12:36.838Z,15.85
2022-12-08T08:15:07.340Z,36.50
2022-12-08T08:17:36.491Z,18.27
2022-12-08T08:20:07.731Z,19.50
2022-12-08T08:22:36.711Z,15.98
2022-12-08T08:25:05.623Z,17.50
2022-12-08T08:27:34.258Z,16.23
2022-12-08T08:30:03.048Z,17.13
2022-12-08T08:32:34.225Z,19.63
2022-12-08T08:35:02.284Z,18.00
2022-12-08T08:37:32.355Z,20.33
2022-12-08T08:40:00.356Z,19.25
2022-12-08T08:42:28.586Z,24.40
2022-12-08T08:44:56.614Z,17.52
2022-12-08T08:47:24.596Z,19.90
2022-12-08T08:49:52.706Z,19.42
2022-12-08T08:52:20.654Z,18.60
2022-12-08T08:54:49.907Z,19.27
2022-12-08T08:57:23.651Z,20.27
2022-12-08T08:59:53.558Z,16.88
2022-12-08T09:02:22.183Z,21.63
2022-12-08T09:04:50.448Z,18.60
2022-12-08T09:07:18.446Z,18.33
2022-12-08T09:09:46.448Z,19.13
2022-12-08T09:12:16.362Z,19.15
2022-12-08T09:14:44.356Z,17.20
2022-12-08T09:17:12.478Z,17.00
2022-12-08T09:19:40.461Z,14.52
2022-12-08T09:22:08.398Z,18.63
2022-12-08T09:24:36.341Z,18.88
2022-12-08T09:27:04.452Z,16.23
2022-12-08T09:29:36.164Z,17.52
2022-12-08T09:32:04.809Z,15.30
2022-12-08T09:34:32.810Z,16.92
2022-12-08T09:37:00.829Z,16.48
2022-12-08T09:39:31.680Z,15.63
2022-12-08T09:42:02.013Z,17.50
2022-12-08T09:44:55.167Z,14.02
2022-12-08T09:47:25.293Z,13.48
2022-12-08T09:50:00.738Z,16.55
2022-12-08T09:52:33.559Z,15.95
2022-12-08T09:55:05.549Z,14.27
2022-12-08T09:57:33.632Z,13.38
2022-12-08T10:00:07.389Z,11.05
2022-12-08T10:02:35.703Z,9.93
2022-12-08T10:05:03.666Z,14.80
2022-12-08T10:07:40.006Z,13.95
2022-12-08T10:10:17.670Z,13.25
2022-12-08T10:12:52.850Z,13.95
2022-12-08T10:15:47.975Z,13.15
2022-12-08T10:18:18.839Z,13.35
2022-12-08T10:20:48.984Z,15.57
2022-12-08T10:23:26.118Z,12.35
2022-12-08T10:25:59.811Z,15.45
2022-12-08T10:28:27.768Z,11.13
2022-12-08T10:30:57.221Z,10.55
2022-12-08T10:33:25.409Z,16.35
2022-12-08T10:35:56.317Z,11.88
2022-12-08T10:38:28.143Z,12.82
2022-12-08T10:41:04.378Z,11.15
2022-12-08T10:43:34.262Z,11.48
2022-12-08T10:46:15.783Z,13.30
2022-12-08T10:48:53.672Z,12.45
2022-12-08T10:51:29.019Z,10.68
2022-12-08T10:53:57.819Z,10.20
2022-12-08T10:56:28.501Z,12.15
2022-12-08T10:59:15.708Z,10.18
2022-12-08T11:01:48.542Z,10.50
2022-12-08T11:04:19.750Z,10.20
2022-12-08T11:06:50.050Z,8.77
2022-12-08T11:09:32.628Z,9.13
2022-12-08T11:12:01.634Z,11.13
2022-12-08T11:14:31.832Z,11.23
2022-12-08T11:17:08.146Z,9.13
2022-12-08T11:19:39.470Z,12.02
2022-12-08T11:22:22.338Z,10.52
2022-12-08T11:24:59.406Z,9.85
2022-12-08T11:27:27.751Z,11.85
2022-12-08T11:29:55.936Z,9.07
2022-12-08T11:32:25.486Z,10.45
2022-12-08T11:35:00.047Z,8.50
2022-12-08T11:37:35.125Z,8.18
2022-12-08T11:40:08.661Z,11.50
2022-12-08T11:42:45.690Z,9.13
2022-12-08T11:45:20.825Z,8.25
2022-12-08T11:47:58.618Z,8.10
2022-12-08T11:50:30.703Z,10.85
2022-12-08T11:53:00.904Z,9.73
2022-12-08T11:55:37.179Z,8.60
2022-12-08T11:58:16.721Z,8.43
2022-12-08T12:00:44.775Z,8.90
2022-12-08T12:03:25.230Z,9.80
2022-12-08T12:06:37.583Z,11.15
2022-12-08T12:09:10.508Z,9.65
2022-12-08T12:12:07.612Z,7.82
2022-12-08T12:14:57.855Z,7.82
2022-12-08T12:17:40.633Z,6.97
2022-12-08T12:20:20.424Z,7.72
2022-12-08T12:22:53.995Z,6.53
2022-12-08T12:25:24.999Z,6.57
2022-12-08T12:27:57.804Z,7.13
2022-12-08T12:30:27.622Z,7.55
2022-12-08T12:32:58.221Z,7.82
2022-12-08T12:35:34.520Z,8.70
2022-12-08T12:38:26.533Z,6.78
2022-12-08T12:43:31.643Z,7.70
2022-12-08T12:46:39.957Z,6.88
2022-12-08T12:49:46.084Z,7.93
2022-12-08T12:52:49.361Z,7.80
2022-12-08T12:55:46.446Z,6.40
2022-12-08T12:58:38.773Z,7.28
2022-12-08T13:01:38.209Z,8.07
2022-12-08T13:04:09.343Z,6.22
2022-12-08T13:06:42.179Z,6.13
2022-12-08T13:09:23.754Z,7.18
2022-12-08T13:11:55.698Z,9.35
2022-12-08T13:14:38.502Z,7.50
2022-12-08T13:17:13.285Z,5.57
2022-12-08T13:19:45.367Z,8.23
2022-12-08T13:22:50.931Z,7.13
2022-12-08T13:25:58.684Z,6.75
2022-12-08T13:28:29.919Z,5.68
2022-12-08T13:30:59.620Z,6.80
2022-12-08T13:33:31.355Z,6.57
2022-12-08T13:36:11.647Z,7.22
2022-12-08T13:38:41.065Z,7.07
2022-12-08T13:41:18.603Z,7.78
2022-12-08T13:44:31.110Z,6.80
2022-12-08T13:56:51.500Z,6.57
2022-12-08T13:58:21.000Z,8.88
2022-12-08T14:01:02.796Z,6.10
2022-12-08T14:03:31.368Z,7.68
2022-12-08T14:06:15.593Z,8.70
2022-12-08T14:09:10.438Z,8.05
2022-12-08T14:11:38.366Z,8.73
2022-12-08T14:14:09.231Z,7.70
2022-12-08T14:16:41.456Z,9.82
2022-12-08T14:19:18.491Z,10.75
2022-12-08T14:21:55.541Z,9.48
2022-12-08T14:24:24.391Z,9.32
2022-12-08T14:26:55.264Z,9.02
2022-12-08T14:29:37.806Z,8.60
2022-12-08T14:32:19.821Z,10.07
2022-12-08T14:34:53.734Z,10.15
2022-12-08T14:37:22.941Z,9.00
2022-12-08T14:39:52.183Z,9.07
2022-12-08T14:42:24.498Z,9.18
2022-12-08T14:45:04.968Z,10.48
2022-12-08T14:47:35.716Z,9.80
2022-12-08T14:50:26.392Z,10.15
2022-12-08T14:52:54.633Z,12.05
2022-12-08T14:55:22.683Z,9.15
2022-12-08T14:57:50.728Z,10.65
2022-12-08T15:00:23.179Z,9.55
2022-12-08T15:02:56.985Z,13.07
2022-12-08T15:05:33.132Z,11.90
2022-12-08T15:08:04.637Z,9.60
2022-12-08T15:10:37.898Z,13.02
2022-12-08T15:13:21.040Z,11.55
2022-12-08T15:15:51.751Z,14.52
2022-12-08T15:18:29.663Z,11.57
2022-12-08T15:21:03.302Z,11.50
2022-12-08T15:24:38.414Z,10.02
2022-12-08T15:27:06.353Z,18.88
2022-12-08T15:29:34.305Z,13.57
2022-12-08T15:32:02.754Z,11.88
2022-12-08T15:34:32.506Z,13.60
2022-12-08T15:37:00.492Z,15.25
2022-12-08T15:39:33.975Z,12.02
2022-12-08T15:42:03.051Z,11.32
2022-12-08T15:44:32.733Z,12.93
2022-12-08T15:47:01.437Z,12.63
2022-12-08T15:49:29.616Z,15.95
2022-12-08T15:52:10.631Z,12.98
2022-12-08T15:54:40.225Z,16.60
2022-12-08T15:57:25.067Z,15.02
2022-12-08T16:00:05.424Z,14.10
2022-12-08T16:02:49.487Z,16.52
2022-12-08T16:08:44.573Z,13.02
2022-12-08T16:12:03.829Z,17.35
2022-12-08T16:14:47.098Z,14.88
2022-12-08T16:16:51.534Z,15.73
2022-12-08T16:19:19.530Z,13.73
2022-12-08T16:24:37.375Z,15.93
2022-12-08T16:29:53.434Z,15.60
2022-12-08T16:32:21.684Z,16.48
2022-12-08T16:34:51.039Z,14.68
2022-12-08T16:37:21.007Z,18.25
2022-12-08T16:39:51.915Z,16.23
2022-12-08T16:42:41.716Z,16.73
2022-12-08T16:45:12.638Z,16.45
2022-12-08T16:47:42.497Z,18.75
2022-12-08T16:50:13.043Z,16.63
2022-12-08T16:52:42.749Z,18.25
2022-12-08T16:55:14.356Z,16.88
2022-12-08T19:07:59.205Z,17.08
2022-12-08T19:10:27.878Z,21.42
2022-12-08T19:12:56.081Z,25.50
2022-12-08T19:15:28.894Z,25.38
2022-12-08T19:18:01.178Z,23.95
2022-12-08T19:20:29.963Z,23.67
2022-12-08T19:22:59.390Z,19.63
2022-12-08T19:25:33.032Z,24.70
2022-12-08T19:28:01.432Z,24.17
2022-12-08T19:30:30.184Z,22.80
2022-12-08T19:32:58.347Z,25.75
2022-12-08T19:35:26.658Z,24.77
2022-12-08T19:37:55.061Z,27.30
2022-12-08T19:40:38.491Z,25.75
2022-12-08T19:43:23.867Z,22.73
2022-12-08T19:45:51.908Z,23.08
2022-12-08T19:48:19.384Z,19.80
2022-12-08T19:50:46.892Z,21.15
2022-12-08T19:53:18.770Z,18.58
2022-12-08T19:55:48.819Z,21.70
2022-12-08T19:58:17.055Z,16.55
2022-12-08T20:00:45.326Z,22.85
2022-12-08T20:03:16.231Z,21.05
2022-12-08T20:05:45.487Z,21.00
2022-12-08T20:08:15.698Z,21.25
2022-12-08T20:10:55.960Z,21.63
2022-12-08T20:13:37.968Z,20.40
2022-12-08T20:16:05.464Z,24.85
2022-12-08T20:18:34.671Z,18.33
2022-12-08T20:21:02.848Z,22.48
2022-12-08T20:23:31.169Z,21.77
2022-12-08T20:26:00.684Z,24.85
2022-12-08T20:28:28.679Z,22.38
2022-12-08T20:30:56.816Z,22.63
2022-12-08T20:33:25.158Z,31.88
2022-12-08T20:36:00.198Z,21.00
2022-12-08T20:38:28.413Z,25.10
2022-12-08T20:40:57.842Z,25.63
2022-12-08T20:43:28.043Z,23.60
2022-12-08T20:45:56.101Z,25.50
2022-12-08T20:48:25.099Z,20.95
2022-12-08T20:50:53.439Z,23.65
2022-12-08T20:53:21.586Z,21.02
2022-12-08T20:55:49.730Z,25.63
2022-12-08T20:58:17.846Z,25.98
2022-12-08T21:00:50.349Z,25.15
2022-12-08T21:03:18.913Z,20.63
2022-12-08T21:05:50.385Z,27.20
2022-12-08T21:08:19.555Z,28.40
2022-12-08T21:10:54.532Z,30.00
2022-12-08T21:13:22.720Z,27.67
2022-12-08T21:15:52.226Z,27.77
2022-12-08T21:18:20.899Z,25.05
2022-12-08T21:20:49.320Z,28.05
2022-12-08T21:23:18.279Z,28.40
2022-12-08T21:25:48.217Z,30.90
2022-12-08T21:28:16.643Z,33.40
2022-12-08T21:30:45.086Z,29.77
2022-12-08T21:33:14.997Z,32.38
2022-12-08T21:35:43.222Z,29.10
2022-12-08T21:38:11.761Z,36.85
2022-12-08T21:40:39.979Z,33.72
2022-12-08T21:43:08.401Z,28.35
2022-12-08T21:45:36.550Z,37.05
2022-12-08T21:48:10.735Z,28.95
2022-12-08T21:50:41.419Z,32.55
2022-12-08T21:53:09.791Z,25.17
2022-12-08T21:55:38.035Z,26.52
2022-12-08T21:58:06.309Z,31.58
2022-12-08T22:00:34.957Z,31.98
2022-12-08T22:03:03.555Z,29.92
2022-12-08T22:05:32.228Z,29.58
2022-12-08T22:08:02.236Z,27.40
2022-12-08T22:10:30.605Z,33.08
2022-12-08T22:12:59.232Z,25.65
2022-12-08T22:15:29.961Z,28.90
2022-12-08T22:18:02.643Z,36.10
2022-12-08T22:20:33.979Z,29.75
2022-12-08T22:23:04.955Z,28.30
2022-12-08T22:25:33.022Z,29.95
2022-12-08T22:28:01.203Z,30.33
2022-12-08T22:30:32.875Z,23.13
2022-12-08T22:33:06.273Z,27.13
2022-12-08T22:35:34.547Z,28.77
2022-12-08T22:38:04.040Z,25.50
2022-12-08T22:40:32.222Z,26.52
2022-12-08T22:43:00.768Z,25.83
2022-12-08T22:45:31.239Z,27.40
2022-12-08T22:47:59.415Z,32.67
2022-12-08T22:50:27.508Z,30.65
2022-12-08T22:52:55.753Z,29.70
2022-12-08T22:55:25.467Z,34.65
2022-12-08T22:57:54.239Z,29.55
2022-12-08T23:00:22.401Z,26.95
2022-12-08T23:02:50.810Z,31.60
2022-12-08T23:05:19.222Z,24.20
2022-12-08T23:07:47.988Z,28.48
2022-12-08T23:10:16.268Z,25.45
2022-12-08T23:12:45.867Z,29.25
2022-12-08T23:15:14.352Z,30.92
2022-12-08T23:17:42.883Z,35.28
2022-12-08T23:20:11.903Z,37.10
2022-12-08T23:22:40.262Z,27.23
2022-12-08T23:25:09.520Z,27.85
2022-12-08T23:27:38.668Z,28.35
2022-12-08T23:30:09.987Z,24.67
2022-12-08T23:32:38.712Z,27.75
2022-12-08T23:35:08.508Z,22.95
2022-12-08T23:37:37.430Z,25.45
2022-12-08T23:40:07.847Z,21.65
2022-12-08T23:42:37.685Z,22.73
2022-12-08T23:45:08.429Z,26.55
2022-12-08T23:47:38.167Z,26.75
2022-12-08T23:50:07.969Z,25.85
2022-12-08T23:52:39.317Z,25.58
2022-12-08T23:55:09.451Z,24.70
2022-12-08T23:57:38.625Z,30.83
